»·PEaware :: N55NT KSNA-KTNP

N55NT :: KSNA-KTNP

FLIGHT INFORMATION

Flight Status: Arrived
Operator: Privately registered:
United States
More flights under this callsign
Pilot: Craig H. (6968)
Aircraft: CESSNA 172 SKYHAWK
(C172)
More flights by this aircraft type
Origin: KSNA John Wayne-Orange Co
United States
Destination: KTNP Twentynine Palms
United States
More flights between these airports :: More routes between these airports
Route: +
File this flight plan on PilotEdge
Remarks:
Altitude:
(Current/Filed)
7,500ft
Speed:
(Current/Filed)
0kts
Departed: 22-Dec-19 03:20 PM
Arrived: 22-Dec-19 04:14 PM
Distance/Time
Traveled:
100nm/0:54
Distance/Time
To Go:
Arrived

Flight Plot

Page will automatically refresh every two minutes.


Map Options




Map Legend


Flown Route
Filed Route
Departure Airport
Arrival Airport
Navaid (VOR, NDB)
Fix

Horizontal Profiles

Position Reports

Time Latitude Longitude Heading Altitude Ground
Speed
22-Dec-19 15:10 33.666058 -117.873025 41 59ft 0kts
22-Dec-19 15:11 33.666058 -117.873025 41 59ft 0kts
22-Dec-19 15:12 33.666058 -117.873025 41 59ft 0kts
22-Dec-19 15:13 33.666100 -117.872985 33 59ft 1kts
22-Dec-19 15:14 33.667534 -117.872560 40 59ft 11kts
22-Dec-19 15:15 33.670466 -117.869540 40 59ft 16kts
22-Dec-19 15:16 33.674091 -117.867108 31 59ft 13kts
22-Dec-19 15:17 33.677991 -117.864627 27 59ft 17kts
22-Dec-19 15:18 33.679918 -117.863566 299 59ft 0kts
22-Dec-19 15:19 33.673684 -117.868327 203 215ft 78kts
22-Dec-19 15:20 33.657108 -117.869102 110 1305ft 79kts
22-Dec-19 15:21 33.658832 -117.840983 89 2308ft 85kts
22-Dec-19 15:22 33.660550 -117.811659 88 3213ft 92kts
22-Dec-19 15:23 33.661584 -117.780078 91 4039ft 97kts
22-Dec-19 15:24 33.663752 -117.749440 89 4936ft 90kts
22-Dec-19 15:25 33.665388 -117.719993 89 5700ft 92kts
22-Dec-19 15:27 33.672801 -117.691014 75 6480ft 92kts
22-Dec-19 15:28 33.680731 -117.661837 76 7182ft 92kts
22-Dec-19 15:29 33.689397 -117.629383 74 7493ft 122kts
22-Dec-19 15:30 33.700074 -117.589535 74 7478ft 126kts
22-Dec-19 15:31 33.710872 -117.549526 75 7491ft 127kts
22-Dec-19 15:32 33.721672 -117.509418 75 7496ft 125kts
22-Dec-19 15:33 33.732511 -117.469013 75 7493ft 127kts
22-Dec-19 15:34 33.743315 -117.428703 75 7503ft 125kts
22-Dec-19 15:35 33.753985 -117.388635 75 7501ft 127kts
22-Dec-19 15:36 33.764901 -117.348120 75 7494ft 127kts
22-Dec-19 15:37 33.775620 -117.307792 75 7494ft 127kts
22-Dec-19 15:38 33.786331 -117.267590 76 7501ft 126kts
22-Dec-19 15:39 33.797081 -117.227267 76 7494ft 126kts
22-Dec-19 15:40 33.807762 -117.187075 75 7495ft 127kts
22-Dec-19 15:41 33.818421 -117.146840 76 7499ft 126kts
22-Dec-19 15:42 33.829109 -117.106453 76 7507ft 126kts
22-Dec-19 15:43 33.839546 -117.066931 76 7504ft 122kts
22-Dec-19 15:44 33.849824 -117.028030 76 7500ft 120kts
22-Dec-19 15:45 33.859982 -116.989426 75 7498ft 122kts
22-Dec-19 15:46 33.870232 -116.950458 75 7502ft 121kts
22-Dec-19 15:47 33.880437 -116.911645 75 7510ft 120kts
22-Dec-19 15:47 33.888903 -116.879476 76 7514ft 121kts
22-Dec-19 15:49 33.900797 -116.834183 75 7517ft 121kts
22-Dec-19 15:50 33.910935 -116.795455 76 7519ft 122kts
22-Dec-19 15:50 33.919407 -116.762997 76 7523ft 121kts
22-Dec-19 15:52 33.931245 -116.717661 75 7527ft 121kts
22-Dec-19 15:52 33.939652 -116.685493 75 7529ft 120kts
22-Dec-19 15:53 33.949719 -116.646719 75 7536ft 121kts
22-Dec-19 15:55 33.961554 -116.601151 75 7533ft 122kts
22-Dec-19 15:55 33.970078 -116.568416 75 7537ft 123kts
22-Dec-19 15:56 33.980237 -116.529202 76 7533ft 121kts
22-Dec-19 15:57 33.990674 -116.490318 75 7529ft 122kts
22-Dec-19 15:58 34.001051 -116.451426 75 7534ft 121kts
22-Dec-19 15:59 34.011109 -116.412655 75 7542ft 120kts
22-Dec-19 16:00 34.021240 -116.373387 75 7542ft 122kts
22-Dec-19 16:01 34.031316 -116.334278 76 7534ft 120kts
22-Dec-19 16:02 34.041200 -116.295776 76 7535ft 121kts
22-Dec-19 16:03 34.060675 -116.260443 54 7295ft 138kts
22-Dec-19 16:04 34.084936 -116.224131 59 6796ft 133kts
22-Dec-19 16:05 34.104792 -116.187711 60 6296ft 127kts
22-Dec-19 16:06 34.124143 -116.152159 60 5795ft 126kts
22-Dec-19 16:07 34.133024 -116.114026 96 5285ft 120kts
22-Dec-19 16:08 34.132439 -116.074701 95 4771ft 114kts
22-Dec-19 16:09 34.134020 -116.039106 89 4091ft 98kts
22-Dec-19 16:10 34.134257 -116.007146 94 3297ft 90kts
22-Dec-19 16:11 34.134381 -115.979041 96 2612ft 76kts
22-Dec-19 16:12 34.134357 -115.955301 97 1954ft 65kts
22-Dec-19 16:13 34.135207 -115.947276 61 1888ft 6kts
22-Dec-19 16:14 34.135229 -115.945014 91 1888ft 8kts
22-Dec-19 16:15 34.135547 -115.944762 199 1885ft 0kts
22-Dec-19 16:16 34.135494 -115.944778 186 1886ft 0kts

Navigation Log

Ident Type
Flight plan parsing failed, navigation log unavailable